KPHX

Phoenix/Sky Harbour International Airport

Airport
ICAO code
KPHX
IATA Code
PHX
Summary
ICAO Region
NAM
ICAO Territory
Location

Phoenix, Maricopa County, Arizona,

Serving
Phoenix
Elevation
1135 ft
Coordinates
33° 26' 6" N , 112° 0' 35" W
KCC
Airport LOS
Parallel Runway Operation
Metar
KPHX 270451Z 23004KT 10SM CLR 31/01 A2984 RMK AO2 SLP086 T03110006

Description

Phoenix Sky Harbor International Airport (IATA: PHX) is located in Phoenix, Maricopa County, Arizona.

Climatology

Hot Desert Climate (Köppen climate classification BWh) - Hot desert climates are typically found in the subtropics where there is unbroken sunshine for the whole year due to the stable descending air and high pressure, little or no precipitation. Maximum temperatures of 40°C to 45°C are not uncommon, particularly during the warmer months of the year. During colder periods of the year, night-time temperatures can drop to freezing or below due to the exceptional radiation loss under the clear skies. However, very rarely do temperatures drop far below freezing.

Runways

Designator Length Width Surface Rops
07R/25L 2377 46 CON Yes/Yes
07L/25R 3139 46 ASP Yes/Yes
8/26 3502 46 CON Yes/Yes

Airport map

Aerial View

SKYbrary Partners:

Safety knowledge contributed by: